Time,TemperatureF,DewpointF,PressureIn,WindDirection,WindDirectionDegrees,WindSpeedMPH,WindSpeedGustMPH,Humidity,HourlyPrecipIn,Conditions,Clouds,dailyrainin,SoftwareType,DateUTC
2013-03-23 00:12:00,25.8,19.0,29.65,WNW,292,0.0,4.0,75,0.00,,,0.00,weatherlink.com 1.10,2013-03-23 04:12:00,
2013-03-23 00:27:00,24.9,19.0,29.65,NNW,330,0.0,3.0,79,0.00,,,0.00,weatherlink.com 1.10,2013-03-23 04:27:00,
2013-03-23 00:42:00,25.8,19.0,29.65,NNW,335,0.0,7.0,74,0.00,,,0.00,weatherlink.com 1.10,2013-03-23 04:42:00,
2013-03-23 00:57:00,26.9,18.0,29.66,North,360,7.0,10.0,69,0.00,,,0.00,weatherlink.com 1.10,2013-03-23 04:57:00,
2013-03-23 01:12:00,26.9,17.0,29.66,NW,308,3.0,9.0,65,0.00,,,0.00,weatherlink.com 1.10,2013-03-23 05:12:00,
2013-03-23 01:28:00,26.6,16.0,29.65,West,265,2.0,8.0,65,0.00,,,0.00,weatherlink.com 1.10,2013-03-23 05:28:00,
2013-03-23 01:43:00,26.3,16.0,29.65,WSW,243,1.0,6.0,66,0.00,,,0.00,weatherlink.com 1.10,2013-03-23 05:43:00,
2013-03-23 01:58:00,26.0,16.0,29.64,WNW,293,2.0,5.0,66,0.00,,,0.00,weatherlink.com 1.10,2013-03-23 05:58:00,
2013-03-23 02:13:00,25.4,16.0,29.64,WNW,294,0.0,10.0,67,0.00,,,0.00,weatherlink.com 1.10,2013-03-23 06:13:00,
2013-03-23 02:28:00,25.0,16.0,29.64,NW,325,0.0,5.0,68,0.00,,,0.00,weatherlink.com 1.10,2013-03-23 06:28:00,
2013-03-23 02:43:00,25.2,16.0,29.63,WNW,303,4.0,7.0,69,0.00,,,0.00,weatherlink.com 1.10,2013-03-23 06:43:00,
2013-03-23 02:58:00,25.8,16.0,29.62,NNW,339,0.0,8.0,67,0.00,,,0.00,weatherlink.com 1.10,2013-03-23 06:58:00,
2013-03-23 03:13:00,25.9,16.0,29.61,West,262,1.0,8.0,67,0.00,,,0.00,weatherlink.com 1.10,2013-03-23 07:13:00,
2013-03-23 03:28:00,25.2,16.0,29.61,West,264,1.0,3.0,67,0.00,,,0.00,weatherlink.com 1.10,2013-03-23 07:28:00,
2013-03-23 03:43:00,24.9,16.0,29.60,WNW,290,0.0,4.0,68,0.00,,,0.00,weatherlink.com 1.10,2013-03-23 07:43:00,
2013-03-23 03:58:00,24.0,16.0,29.60,West,274,0.0,1.0,70,0.00,,,0.00,weatherlink.com 1.10,2013-03-23 07:58:00,
2013-03-23 04:13:00,23.8,16.0,29.59,SW,219,0.0,2.0,71,0.00,,,0.00,weatherlink.com 1.10,2013-03-23 08:13:00,
2013-03-23 04:28:00,23.3,16.0,29.59,WSW,239,0.0,3.0,72,0.00,,,0.00,weatherlink.com 1.10,2013-03-23 08:28:00,
2013-03-23 04:43:00,22.9,15.0,29.59,NNW,327,0.0,3.0,73,0.00,,,0.00,weatherlink.com 1.10,2013-03-23 08:43:00,
2013-03-23 04:58:00,23.0,16.0,29.58,WNW,289,0.0,3.0,73,0.00,,,0.00,weatherlink.com 1.10,2013-03-23 08:58:00,
2013-03-23 05:13:00,22.9,15.0,29.58,WNW,302,0.0,4.0,73,0.00,,,0.00,weatherlink.com 1.10,2013-03-23 09:13:00,
2013-03-23 05:28:00,22.3,16.0,29.58,West,278,0.0,2.0,75,0.00,,,0.00,weatherlink.com 1.10,2013-03-23 09:28:00,
2013-03-23 05:43:00,22.1,15.0,29.58,West,274,0.0,0.0,75,0.00,,,0.00,weatherlink.com 1.10,2013-03-23 09:43:00,
2013-03-23 05:58:00,21.1,15.0,29.58,West,274,1.0,1.0,78,0.00,,,0.00,weatherlink.com 1.10,2013-03-23 09:58:00,
2013-03-23 06:13:00,21.1,15.0,29.59,West,277,0.0,1.0,78,0.00,,,0.00,weatherlink.com 1.10,2013-03-23 10:13:00,
2013-03-23 06:28:00,20.5,15.0,29.58,West,277,0.0,0.0,79,0.00,,,0.00,weatherlink.com 1.10,2013-03-23 10:28:00,
2013-03-23 06:43:00,19.8,15.0,29.58,West,277,0.0,0.0,81,0.00,,,0.00,weatherlink.com 1.10,2013-03-23 10:43:00,
2013-03-23 06:58:00,19.5,15.0,29.58,West,277,0.0,0.0,82,0.00,,,0.00,weatherlink.com 1.10,2013-03-23 10:58:00,
2013-03-23 07:13:00,19.7,15.0,29.58,West,259,0.0,1.0,82,0.00,,,0.00,weatherlink.com 1.10,2013-03-23 11:13:00,
2013-03-23 07:28:00,21.1,16.0,29.58,West,259,0.0,0.0,80,0.00,,,0.00,weatherlink.com 1.10,2013-03-23 11:28:00,
2013-03-23 07:43:00,23.2,17.0,29.57,WSW,254,0.0,1.0,78,0.00,,,0.00,weatherlink.com 1.10,2013-03-23 11:43:00,
2013-03-23 07:58:00,23.9,18.0,29.57,SW,222,0.0,1.0,78,0.00,,,0.00,weatherlink.com 1.10,2013-03-23 11:58:00,
2013-03-23 08:13:00,25.9,19.0,29.57,South,188,0.0,2.0,76,0.00,,,0.00,weatherlink.com 1.10,2013-03-23 12:13:00,
2013-03-23 08:28:00,27.0,20.0,29.56,SSW,213,0.0,5.0,74,0.00,,,0.00,weatherlink.com 1.10,2013-03-23 12:28:00,
2013-03-23 08:44:00,27.7,20.0,29.56,South,187,0.0,5.0,73,0.00,,,0.00,weatherlink.com 1.10,2013-03-23 12:44:00,
2013-03-23 08:59:00,28.4,21.0,29.55,SW,215,1.0,5.0,73,0.00,,,0.00,weatherlink.com 1.10,2013-03-23 12:59:00,
2013-03-23 09:14:00,28.8,21.0,29.55,SSW,207,2.0,4.0,72,0.00,,,0.00,weatherlink.com 1.10,2013-03-23 13:14:00,
2013-03-23 09:29:00,29.5,21.0,29.54,SW,217,2.0,3.0,71,0.00,,,0.00,weatherlink.com 1.10,2013-03-23 13:29:00,
2013-03-23 09:44:00,30.9,21.0,29.54,SSW,203,0.0,9.0,67,0.00,,,0.00,weatherlink.com 1.10,2013-03-23 13:44:00,
2013-03-23 09:59:00,32.0,21.0,29.54,SSW,212,4.0,11.0,64,0.00,,,0.00,weatherlink.com 1.10,2013-03-23 13:59:00,
2013-03-23 10:14:00,33.5,21.0,29.53,WNW,297,1.0,11.0,60,0.00,,,0.00,weatherlink.com 1.10,2013-03-23 14:14:00,
2013-03-23 10:29:00,34.6,21.0,29.53,SW,225,3.0,15.0,57,0.00,,,0.00,weatherlink.com 1.10,2013-03-23 14:29:00,
2013-03-23 10:44:00,35.6,20.0,29.52,West,266,7.0,20.0,53,0.00,,,0.00,weatherlink.com 1.10,2013-03-23 14:44:00,
2013-03-23 10:59:00,37.0,21.0,29.51,WNW,284,2.0,17.0,53,0.00,,,0.00,weatherlink.com 1.10,2013-03-23 14:59:00,
2013-03-23 11:14:00,37.7,20.0,29.50,West,264,6.0,21.0,49,0.00,,,0.00,weatherlink.com 1.10,2013-03-23 15:14:00,
2013-03-23 11:29:00,38.5,20.0,29.51,West,266,4.0,17.0,47,0.00,,,0.00,weatherlink.com 1.10,2013-03-23 15:29:00,
2013-03-23 11:44:00,39.2,19.0,29.51,NNW,344,8.0,21.0,45,0.00,,,0.00,weatherlink.com 1.10,2013-03-23 15:44:00,
2013-03-23 12:00:00,39.4,20.0,29.50,WSW,255,7.0,21.0,45,0.00,,,0.00,weatherlink.com 1.10,2013-03-23 16:00:00,
2013-03-23 12:14:00,40.1,20.0,29.50,WNW,283,7.0,24.0,44,0.00,,,0.00,weatherlink.com 1.10,2013-03-23 16:14:00,
2013-03-23 12:29:00,39.9,19.0,29.50,NNW,329,5.0,17.0,44,0.00,,,0.00,weatherlink.com 1.10,2013-03-23 16:29:00,
2013-03-23 12:44:00,40.0,20.0,29.50,WNW,292,10.0,20.0,45,0.00,,,0.00,weatherlink.com 1.10,2013-03-23 16:44:00,
2013-03-23 12:59:00,40.5,20.0,29.51,WNW,290,7.0,19.0,44,0.00,,,0.00,weatherlink.com 1.10,2013-03-23 16:59:00,
2013-03-23 13:14:00,39.6,20.0,29.50,WNW,285,12.0,17.0,46,0.00,,,0.00,weatherlink.com 1.10,2013-03-23 17:14:00,
2013-03-23 13:29:00,38.9,20.0,29.51,NNW,340,8.0,18.0,47,0.00,,,0.00,weatherlink.com 1.10,2013-03-23 17:29:00,
2013-03-23 13:44:00,39.5,21.0,29.51,West,259,3.0,18.0,48,0.00,,,0.00,weatherlink.com 1.10,2013-03-23 17:44:00,
2013-03-23 13:59:00,40.4,21.0,29.51,NNW,329,7.0,21.0,46,0.00,,,0.00,weatherlink.com 1.10,2013-03-23 17:59:00,
2013-03-23 14:14:00,39.5,21.0,29.51,West,269,7.0,28.0,48,0.00,,,0.00,weatherlink.com 1.10,2013-03-23 18:14:00,
2013-03-23 14:29:00,39.7,21.0,29.52,North,351,7.0,17.0,48,0.00,,,0.00,weatherlink.com 1.10,2013-03-23 18:29:00,
2013-03-23 14:44:00,40.9,21.0,29.51,NW,304,4.0,21.0,46,0.00,,,0.00,weatherlink.com 1.10,2013-03-23 18:44:00,
2013-03-23 14:59:00,40.6,22.0,29.52,WNW,288,10.0,19.0,47,0.00,,,0.00,weatherlink.com 1.10,2013-03-23 18:59:00,
2013-03-23 15:15:00,39.6,22.0,29.52,West,276,14.0,17.0,49,0.00,,,0.00,weatherlink.com 1.10,2013-03-23 19:15:00,
2013-03-23 15:30:00,39.7,22.0,29.53,NW,315,8.0,24.0,49,0.00,,,0.00,weatherlink.com 1.10,2013-03-23 19:30:00,
2013-03-23 15:45:00,40.0,21.0,29.54,NW,310,3.0,21.0,47,0.00,,,0.00,weatherlink.com 1.10,2013-03-23 19:45:00,
2013-03-23 16:00:00,39.6,21.0,29.55,WNW,298,6.0,21.0,47,0.00,,,0.00,weatherlink.com 1.10,2013-03-23 20:00:00,
2013-03-23 16:15:00,39.5,21.0,29.55,NW,320,10.0,17.0,48,0.00,,,0.00,weatherlink.com 1.10,2013-03-23 20:15:00,
2013-03-23 16:30:00,38.0,21.0,29.56,NNW,341,12.0,22.0,51,0.00,,,0.00,weatherlink.com 1.10,2013-03-23 20:30:00,
2013-03-23 16:45:00,37.2,21.0,29.57,NW,313,20.0,21.0,52,0.00,,,0.00,weatherlink.com 1.10,2013-03-23 20:45:00,
2013-03-23 17:00:00,37.0,21.0,29.56,North,360,11.0,18.0,53,0.00,,,0.00,weatherlink.com 1.10,2013-03-23 21:00:00,
2013-03-23 17:15:00,37.5,21.0,29.57,NNE,26,8.0,26.0,52,0.00,,,0.00,weatherlink.com 1.10,2013-03-23 21:15:00,
2013-03-23 17:30:00,37.9,22.0,29.57,NW,323,3.0,14.0,54,0.00,,,0.00,weatherlink.com 1.10,2013-03-23 21:30:00,
2013-03-23 17:45:00,37.3,21.0,29.58,West,267,5.0,30.0,53,0.00,,,0.00,weatherlink.com 1.10,2013-03-23 21:45:00,
2013-03-23 18:00:00,37.1,22.0,29.58,NNE,19,1.0,16.0,55,0.00,,,0.00,weatherlink.com 1.10,2013-03-23 22:00:00,
2013-03-23 18:15:00,36.5,22.0,29.59,NNW,348,4.0,18.0,57,0.00,,,0.00,weatherlink.com 1.10,2013-03-23 22:15:00,
2013-03-23 18:30:00,36.2,23.0,29.59,West,273,4.0,16.0,58,0.00,,,0.00,weatherlink.com 1.10,2013-03-23 22:30:00,
2013-03-23 18:45:00,35.8,23.0,29.60,WNW,290,0.0,19.0,59,0.00,,,0.00,weatherlink.com 1.10,2013-03-23 22:45:00,
2013-03-23 19:00:00,35.4,23.0,29.61,NW,315,5.0,17.0,60,0.00,,,0.00,weatherlink.com 1.10,2013-03-23 23:00:00,
2013-03-23 19:15:00,34.9,23.0,29.61,WSW,237,4.0,10.0,61,0.00,,,0.00,weatherlink.com 1.10,2013-03-23 23:15:00,
2013-03-23 19:30:00,34.6,23.0,29.61,West,277,7.0,12.0,62,0.00,,,0.00,weatherlink.com 1.10,2013-03-23 23:30:00,
2013-03-23 19:45:00,34.4,23.0,29.62,WNW,292,1.0,14.0,64,0.00,,,0.00,weatherlink.com 1.10,2013-03-23 23:45:00,
2013-03-23 20:00:00,34.2,23.0,29.62,WNW,290,4.0,16.0,64,0.00,,,0.00,weatherlink.com 1.10,2013-03-24 00:00:00,
2013-03-23 20:15:00,33.9,23.0,29.62,North,5,3.0,14.0,65,0.00,,,0.00,weatherlink.com 1.10,2013-03-24 00:15:00,
2013-03-23 20:30:00,34.0,23.0,29.63,NW,324,5.0,9.0,64,0.00,,,0.00,weatherlink.com 1.10,2013-03-24 00:30:00,
2013-03-23 20:44:00,33.7,23.0,29.64,NW,315,2.0,11.0,66,0.00,,,0.00,weatherlink.com 1.10,2013-03-24 00:44:00,
2013-03-23 21:00:00,33.8,23.0,29.64,NNW,345,2.0,16.0,66,0.00,,,0.00,weatherlink.com 1.10,2013-03-24 01:00:00,
2013-03-23 21:15:00,33.9,23.0,29.64,ENE,59,1.0,16.0,65,0.00,,,0.00,weatherlink.com 1.10,2013-03-24 01:15:00,
2013-03-23 21:30:00,33.6,23.0,29.65,West,276,2.0,11.0,66,0.00,,,0.00,weatherlink.com 1.10,2013-03-24 01:30:00,
2013-03-23 21:45:00,33.4,23.0,29.65,WSW,258,6.0,12.0,67,0.00,,,0.00,weatherlink.com 1.10,2013-03-24 01:45:00,
2013-03-23 22:00:00,33.6,24.0,29.65,WNW,291,6.0,17.0,67,0.00,,,0.00,weatherlink.com 1.10,2013-03-24 02:00:00,
2013-03-23 22:15:00,33.6,24.0,29.65,North,360,3.0,13.0,67,0.00,,,0.00,weatherlink.com 1.10,2013-03-24 02:15:00,
2013-03-23 22:30:00,33.6,24.0,29.65,WNW,284,4.0,13.0,67,0.00,,,0.00,weatherlink.com 1.10,2013-03-24 02:30:00,
2013-03-23 22:45:00,33.6,24.0,29.65,WNW,282,5.0,10.0,67,0.00,,,0.00,weatherlink.com 1.10,2013-03-24 02:45:00,
2013-03-23 23:00:00,33.6,24.0,29.65,NW,321,3.0,13.0,68,0.00,,,0.00,weatherlink.com 1.10,2013-03-24 03:00:00,
2013-03-23 23:15:00,33.6,24.0,29.65,NW,306,7.0,13.0,68,0.00,,,0.00,weatherlink.com 1.10,2013-03-24 03:15:00,
2013-03-23 23:30:00,33.7,24.0,29.65,West,271,0.0,11.0,68,0.00,,,0.00,weatherlink.com 1.10,2013-03-24 03:30:00,
2013-03-23 23:45:00,33.6,24.0,29.64,West,273,6.0,17.0,68,0.00,,,0.00,weatherlink.com 1.10,2013-03-24 03:45:00,